Terminal Aerodrome Forecast
Issued by NWS

Home | Current Version | Previous Version | Graphics & Text | Print | Product List | Glossary On
Versions: 1 2 3 4 5 6 7 8 9 10 11 12 13 14 15 16
000
FTUS42 KMHX 211120
TAFOAJ
TAF
KOAJ 211120Z 2112/2212 00000KT 1SM BR BKN003
     FM211300 13005KT P6SM SCT050
     FM220800 00000KT 2SM BR SKC
      AMD LTD TO CLD VIS AND WIND=

USA.gov is the U.S. government's official web portal to all federal, state and local government web resources and services.